createdAt,value
2023-12-23T00:02:00.880Z,99632.16
2023-12-23T00:04:28.055Z,99639.88
2023-12-23T00:06:55.085Z,99644.66
2023-12-23T00:09:22.945Z,99648.09
2023-12-23T00:11:51.972Z,99657.16
2023-12-23T00:14:19.175Z,99665.16
2023-12-23T00:16:46.519Z,99670.47
2023-12-23T00:19:13.783Z,99680.31
2023-12-23T00:21:41.120Z,99694.41
2023-12-23T00:24:08.574Z,99690.69
2023-12-23T00:26:35.685Z,99709.31
2023-12-23T00:29:02.887Z,99707.22
2023-12-23T00:31:30.046Z,99722.06
2023-12-23T00:33:57.232Z,99726.06
2023-12-23T00:36:24.400Z,99733.81
2023-12-23T00:38:51.565Z,99731.13
2023-12-23T00:41:18.837Z,99721.84
2023-12-23T00:43:45.940Z,99751.44
2023-12-23T00:46:13.046Z,99745.25
2023-12-23T00:48:40.293Z,99740.72
2023-12-23T00:51:07.513Z,99749.84
2023-12-23T00:53:34.628Z,99756.78
2023-12-23T00:56:01.814Z,99763.16
2023-12-23T00:58:28.909Z,99761.06
2023-12-23T01:00:56.101Z,99756.78
2023-12-23T01:03:23.249Z,99752.53
2023-12-23T01:05:50.397Z,99762.41
2023-12-23T01:08:17.601Z,99776.50
2023-12-23T01:10:44.798Z,99765.06
2023-12-23T01:13:12.022Z,99762.66
2023-12-23T01:15:39.122Z,99772.28
2023-12-23T01:18:06.350Z,99784.53
2023-12-23T01:20:33.535Z,99780.31
2023-12-23T01:23:00.835Z,99781.34
2023-12-23T01:25:28.069Z,99773.91
2023-12-23T01:27:55.172Z,99779.75
2023-12-23T01:30:24.182Z,99773.66
2023-12-23T01:32:52.620Z,99782.16
2023-12-23T01:35:19.819Z,99788.28
2023-12-23T01:37:47.284Z,99788.28
2023-12-23T01:40:14.498Z,99781.88
2023-12-23T01:42:41.620Z,99778.69
2023-12-23T01:45:09.420Z,99781.06
2023-12-23T01:47:40.787Z,99781.31
2023-12-23T01:50:10.584Z,99784.00
2023-12-23T01:52:39.725Z,99770.16
2023-12-23T01:55:07.384Z,99782.66
2023-12-23T01:57:34.637Z,99776.50
2023-12-23T02:00:01.944Z,99783.69
2023-12-23T02:02:29.830Z,99791.44
2023-12-23T02:04:57.507Z,99794.06
2023-12-23T02:07:24.797Z,99799.94
2023-12-23T02:09:53.084Z,99803.13
2023-12-23T02:12:39.229Z,99804.72
2023-12-23T02:15:11.109Z,99807.38
2023-12-23T02:17:41.991Z,99807.91
2023-12-23T02:20:09.697Z,99800.47
2023-12-23T02:22:37.033Z,99798.06
2023-12-23T02:25:04.454Z,99789.81
2023-12-23T02:27:38.132Z,99791.69
2023-12-23T02:30:05.836Z,99801.78
2023-12-23T02:32:33.619Z,99790.34
2023-12-23T02:35:00.847Z,99788.47
2023-12-23T02:37:30.135Z,99782.88
2023-12-23T02:39:58.609Z,99785.03
2023-12-23T02:42:25.646Z,99790.88
2023-12-23T02:44:53.006Z,99795.16
2023-12-23T02:47:20.380Z,99778.09
2023-12-23T02:49:47.463Z,99788.72
2023-12-23T02:52:14.675Z,99790.91
2023-12-23T02:54:41.776Z,99788.72
2023-12-23T02:57:08.828Z,99788.72
2023-12-23T02:59:36.002Z,99793.53
2023-12-23T03:02:03.149Z,99796.19
2023-12-23T03:04:30.302Z,99789.81
2023-12-23T03:06:57.476Z,99792.72
2023-12-23T03:09:24.550Z,99795.41
2023-12-23T03:11:51.843Z,99798.81
2023-12-23T03:14:19.045Z,99813.19
2023-12-23T03:16:46.255Z,99811.06
2023-12-23T03:19:13.785Z,99801.44
2023-12-23T03:21:47.931Z,99813.16
2023-12-23T03:24:15.014Z,99802.28
2023-12-23T03:26:42.145Z,99815.03
2023-12-23T03:29:09.328Z,99813.16
2023-12-23T03:31:36.549Z,99816.59
2023-12-23T03:34:03.749Z,99822.19
2023-12-23T03:36:30.862Z,99822.22
2023-12-23T03:38:57.981Z,99812.94
2023-12-23T03:41:25.388Z,99811.84
2023-12-23T03:43:52.525Z,99813.44
2023-12-23T03:46:21.192Z,99817.47
2023-12-23T03:48:49.156Z,99828.13
2023-12-23T03:51:16.661Z,99832.38
2023-12-23T03:53:43.856Z,99827.09
2023-12-23T03:56:11.061Z,99811.16
2023-12-23T03:58:48.236Z,99799.47
2023-12-23T04:01:17.942Z,99788.53
2023-12-23T04:03:46.086Z,99781.63
2023-12-23T04:06:13.292Z,99777.63
2023-12-23T04:08:41.496Z,99768.34
2023-12-23T04:11:08.692Z,99770.19
2023-12-23T04:13:35.853Z,99766.50
2023-12-23T04:16:06.339Z,99767.53
2023-12-23T04:18:33.588Z,99766.19
2023-12-23T04:21:00.784Z,99756.34
2023-12-23T04:23:27.919Z,99753.69
2023-12-23T04:25:55.924Z,99757.94
2023-12-23T04:28:26.267Z,99749.16
2023-12-23T04:30:58.433Z,99751.00
2023-12-23T04:33:25.751Z,99743.28
2023-12-23T04:35:53.646Z,99758.97
2023-12-23T04:38:20.854Z,99740.06
2023-12-23T04:40:47.977Z,99752.59
2023-12-23T04:43:15.137Z,99742.50
2023-12-23T04:45:42.344Z,99747.00
2023-12-23T04:48:09.586Z,99745.19
2023-12-23T04:50:36.765Z,99730.53
2023-12-23T04:53:03.923Z,99724.97
2023-12-23T04:55:31.257Z,99722.84
2023-12-23T04:57:58.337Z,99728.16
2023-12-23T05:00:25.878Z,99723.09
2023-12-23T05:02:53.177Z,99728.16
2023-12-23T05:05:20.698Z,99725.50
2023-12-23T05:07:48.421Z,99715.66
2023-12-23T05:10:16.063Z,99706.06
2023-12-23T05:12:43.306Z,99695.69
2023-12-23T05:15:10.584Z,99689.84
2023-12-23T05:17:38.017Z,99688.78
2023-12-23T05:20:06.467Z,99689.31
2023-12-23T05:22:33.665Z,99682.94
2023-12-23T05:25:00.824Z,99674.69
2023-12-23T05:27:28.262Z,99687.22
2023-12-23T05:29:57.502Z,99673.63
2023-12-23T05:32:24.772Z,99669.66
2023-12-23T05:34:52.031Z,99648.38
2023-12-23T05:37:19.158Z,99659.81
2023-12-23T05:39:49.613Z,99654.47
2023-12-23T05:42:17.206Z,99644.63
2023-12-23T05:44:44.346Z,99647.81
2023-12-23T05:47:11.603Z,99642.47
2023-12-23T05:49:39.093Z,99642.22
2023-12-23T05:52:26.616Z,99637.69
2023-12-23T05:54:53.898Z,99634.47
2023-12-23T05:57:21.033Z,99649.41
2023-12-23T05:59:48.791Z,99629.41
2023-12-23T06:02:15.919Z,99633.19
2023-12-23T06:04:43.273Z,99628.91
2023-12-23T06:07:10.527Z,99636.91
2023-12-23T06:09:37.842Z,99636.66
2023-12-23T06:12:05.281Z,99629.19
2023-12-23T06:14:32.378Z,99611.91
2023-12-23T06:16:59.660Z,99616.69
2023-12-23T06:19:27.131Z,99602.06
2023-12-23T06:21:54.252Z,99591.41
2023-12-23T06:24:21.479Z,99599.47
2023-12-23T06:26:48.882Z,99585.06
2023-12-23T06:29:16.250Z,99590.63
2023-12-23T06:31:43.405Z,99585.84
2023-12-23T06:34:10.696Z,99589.84
2023-12-23T06:36:38.040Z,99571.25
2023-12-23T06:39:05.263Z,99576.31
2023-12-23T06:41:32.670Z,99579.81
2023-12-23T06:43:59.935Z,99577.66
2023-12-23T06:46:27.420Z,99564.38
2023-12-23T06:48:54.861Z,99572.34
2023-12-23T06:51:22.084Z,99567.56
2023-12-23T06:53:50.365Z,99587.25
2023-12-23T06:56:17.601Z,99581.38
2023-12-23T06:58:45.413Z,99588.28
2023-12-23T07:01:12.744Z,99586.19
2023-12-23T07:03:42.592Z,99581.13
2023-12-23T07:06:14.456Z,99580.88
2023-12-23T07:08:41.814Z,99587.25
2023-12-23T07:11:11.910Z,99584.59
2023-12-23T07:13:39.122Z,99589.94
2023-12-23T07:16:06.584Z,99598.44
2023-12-23T07:18:33.819Z,99585.16
2023-12-23T07:21:01.902Z,99585.69
2023-12-23T07:23:29.219Z,99590.44
2023-12-23T07:25:56.494Z,99597.38
2023-12-23T07:28:24.259Z,99575.31
2023-12-23T07:30:51.585Z,99589.66
2023-12-23T07:33:18.902Z,99596.31
2023-12-23T07:35:46.142Z,99596.06
2023-12-23T07:38:14.270Z,99594.19
2023-12-23T07:40:41.648Z,99596.28
2023-12-23T07:43:08.768Z,99591.53
2023-12-23T07:45:36.427Z,99598.97
2023-12-23T07:48:04.233Z,99590.19
2023-12-23T07:50:31.429Z,99600.03
2023-12-23T07:52:58.713Z,99604.25
2023-12-23T07:55:27.522Z,99605.56
2023-12-23T07:57:54.643Z,99598.94
2023-12-23T08:00:21.913Z,99595.22
2023-12-23T08:02:49.179Z,99591.75
2023-12-23T08:05:17.422Z,99596.28
2023-12-23T08:07:45.052Z,99599.75
2023-12-23T08:10:12.213Z,99594.13
2023-12-23T08:12:39.351Z,99593.63
2023-12-23T08:15:07.068Z,99593.59
2023-12-23T08:17:34.338Z,99601.59
2023-12-23T08:20:01.834Z,99593.59
2023-12-23T08:22:29.037Z,99595.47
2023-12-23T08:24:56.246Z,99587.50
2023-12-23T08:27:23.765Z,99589.91
2023-12-23T08:29:50.919Z,99593.06
2023-12-23T08:32:18.057Z,99590.16
2023-12-23T08:34:48.388Z,99589.59
2023-12-23T08:37:15.733Z,99581.13
2023-12-23T08:39:42.810Z,99583.00
2023-12-23T08:42:09.980Z,99581.94
2023-12-23T08:44:37.091Z,99579.53
2023-12-23T08:47:04.363Z,99577.41
2023-12-23T08:49:31.738Z,99586.97
2023-12-23T08:51:58.847Z,99587.25
2023-12-23T08:54:25.991Z,99587.75
2023-12-23T08:56:53.114Z,99581.63
2023-12-23T08:59:20.304Z,99573.97
2023-12-23T09:01:47.479Z,99572.63
2023-12-23T09:04:14.659Z,99571.81
2023-12-23T09:06:41.734Z,99560.94
2023-12-23T09:09:09.026Z,99567.06
2023-12-23T09:11:42.992Z,99574.22
2023-12-23T09:14:13.560Z,99575.28
2023-12-23T09:16:40.881Z,99574.75
2023-12-23T09:19:08.151Z,99580.31
2023-12-23T09:21:35.350Z,99580.59
2023-12-23T09:24:02.603Z,99572.63
2023-12-23T09:26:29.759Z,99582.75
2023-12-23T09:28:57.164Z,99578.50
2023-12-23T09:31:24.353Z,99580.59
2023-12-23T09:33:51.628Z,99584.59
2023-12-23T09:36:18.885Z,99589.38
2023-12-23T09:38:46.015Z,99570.78
2023-12-23T09:41:13.358Z,99586.44
2023-12-23T09:43:40.525Z,99588.31
2023-12-23T09:46:09.008Z,99596.81
2023-12-23T09:48:36.336Z,99583.53
2023-12-23T09:51:04.158Z,99586.19
2023-12-23T09:53:35.638Z,99586.97
2023-12-23T09:56:02.955Z,99585.91
2023-12-23T09:58:30.094Z,99575.56
2023-12-23T10:00:57.270Z,99582.97
2023-12-23T10:03:24.665Z,99580.31
2023-12-23T10:05:55.836Z,99574.75
2023-12-23T10:08:23.162Z,99575.56
2023-12-23T10:10:50.468Z,99574.75
2023-12-23T10:13:17.859Z,99568.66
2023-12-23T10:15:46.030Z,99573.19
2023-12-23T10:18:13.870Z,99567.59
2023-12-23T10:20:43.151Z,99581.66
2023-12-23T10:23:10.643Z,99568.16
2023-12-23T10:25:37.858Z,99572.41
2023-12-23T10:28:07.848Z,99572.13
2023-12-23T10:30:38.581Z,99575.31
2023-12-23T10:33:09.829Z,99571.31
2023-12-23T10:35:44.964Z,99567.63
2023-12-23T10:38:21.833Z,99569.19
2023-12-23T10:41:18.543Z,99562.84
2023-12-23T10:43:46.754Z,99564.41
2023-12-23T10:46:15.768Z,99570.53
2023-12-23T10:48:43.899Z,99573.47
2023-12-23T10:51:12.388Z,99573.72
2023-12-23T10:53:40.561Z,99576.91
2023-12-23T10:56:09.722Z,99577.41
2023-12-23T10:58:38.582Z,99591.78
2023-12-23T11:01:07.509Z,99573.16
2023-12-23T11:03:37.042Z,99569.94
2023-12-23T11:06:07.367Z,99581.91
2023-12-23T11:08:35.626Z,99572.63
2023-12-23T11:11:04.398Z,99576.09
2023-12-23T11:13:32.347Z,99586.44
2023-12-23T11:16:00.861Z,99574.75
2023-12-23T11:18:28.044Z,99577.66
2023-12-23T11:20:55.670Z,99575.00
2023-12-23T11:23:35.476Z,99577.38
2023-12-23T11:26:04.416Z,99586.72
2023-12-23T11:28:37.037Z,99581.41
2023-12-23T11:31:05.021Z,99578.47
2023-12-23T11:33:36.528Z,99580.34
2023-12-23T11:36:04.587Z,99583.25
2023-12-23T11:38:53.062Z,99585.63
2023-12-23T11:41:22.248Z,99595.22
2023-12-23T11:43:54.062Z,99591.50
2023-12-23T11:46:22.368Z,99596.81
2023-12-23T11:48:49.431Z,99594.69
2023-12-23T11:51:16.807Z,99588.56
2023-12-23T11:53:44.481Z,99580.31
2023-12-23T11:56:11.926Z,99599.47
2023-12-23T11:58:39.219Z,99587.78
2023-12-23T12:01:06.553Z,99580.31
2023-12-23T12:03:33.915Z,99581.38
2023-12-23T12:06:03.483Z,99585.03
2023-12-23T12:08:31.121Z,99587.97
2023-12-23T12:11:02.174Z,99584.22
2023-12-23T12:13:41.451Z,99593.03
2023-12-23T12:16:08.693Z,99580.22
2023-12-23T12:18:36.147Z,99589.81
2023-12-23T12:21:03.541Z,99588.19
2023-12-23T12:23:30.649Z,99586.06
2023-12-23T12:25:59.645Z,99590.34
2023-12-23T12:28:27.687Z,99586.38
2023-12-23T12:30:55.646Z,99591.94
2023-12-23T12:33:22.844Z,99591.41
2023-12-23T12:35:50.124Z,99587.66
2023-12-23T12:38:23.265Z,99588.97
2023-12-23T12:40:52.945Z,99588.41
2023-12-23T12:43:23.518Z,99590.00
2023-12-23T12:46:12.529Z,99590.75
2023-12-23T12:48:42.656Z,99579.56
2023-12-23T12:51:10.125Z,99589.69
2023-12-23T12:53:37.563Z,99592.56
2023-12-23T12:56:12.019Z,99596.00
2023-12-23T12:58:40.235Z,99583.72
2023-12-23T13:01:08.230Z,99582.63
2023-12-23T13:03:35.513Z,99588.19
2023-12-23T13:06:02.778Z,99581.00
2023-12-23T13:08:29.905Z,99602.03
2023-12-23T13:10:57.089Z,99585.78
2023-12-23T13:13:24.353Z,99583.66
2023-12-23T13:15:54.262Z,99583.16
2023-12-23T13:18:21.788Z,99590.22
2023-12-23T13:20:49.981Z,99607.59
2023-12-23T13:23:17.131Z,99613.69
2023-12-23T13:25:44.816Z,99618.75
2023-12-23T13:28:12.098Z,99629.91
2023-12-23T13:30:39.271Z,99626.97
2023-12-23T13:33:08.460Z,99624.84
2023-12-23T13:35:35.841Z,99625.94
2023-12-23T13:38:03.026Z,99635.00
2023-12-23T13:40:30.234Z,99637.09
2023-12-23T13:42:57.460Z,99627.78
2023-12-23T13:45:24.564Z,99636.31
2023-12-23T13:47:54.002Z,99630.47
2023-12-23T13:50:22.831Z,99644.91
2023-12-23T13:52:50.273Z,99644.63
2023-12-23T13:55:17.940Z,99645.44
2023-12-23T13:57:45.008Z,99651.22
2023-12-23T14:00:12.759Z,99652.00
2023-12-23T14:02:39.872Z,99643.78
2023-12-23T14:05:07.292Z,99652.81
2023-12-23T14:07:34.645Z,99653.94
2023-12-23T14:10:01.937Z,99649.88
2023-12-23T14:12:29.054Z,99652.00
2023-12-23T14:14:56.962Z,99656.53
2023-12-23T14:17:24.232Z,99663.00
2023-12-23T14:19:51.602Z,99663.25
2023-12-23T14:22:19.226Z,99672.25
2023-12-23T14:24:46.524Z,99681.59
2023-12-23T14:27:13.760Z,99682.72
2023-12-23T14:29:43.304Z,99690.94
2023-12-23T14:32:10.573Z,99689.31
2023-12-23T14:34:37.756Z,99696.25
2023-12-23T14:37:05.017Z,99700.78
2023-12-23T14:39:32.136Z,99695.22
2023-12-23T14:41:59.330Z,99698.63
2023-12-23T14:44:26.435Z,99707.41
2023-12-23T14:46:53.562Z,99699.97
2023-12-23T14:49:20.874Z,99712.75
2023-12-23T14:51:47.995Z,99720.16
2023-12-23T14:54:15.111Z,99728.97
2023-12-23T14:56:42.271Z,99727.66
2023-12-23T14:59:09.383Z,99734.03
2023-12-23T15:01:36.930Z,99734.03
2023-12-23T15:04:05.716Z,99733.22
2023-12-23T15:06:33.160Z,99733.22
2023-12-23T15:09:00.327Z,99747.63
2023-12-23T15:11:27.503Z,99742.31
2023-12-23T15:13:55.939Z,99744.16
2023-12-23T15:16:23.099Z,99741.53
2023-12-23T15:18:50.419Z,99733.25
2023-12-23T15:21:17.664Z,99728.19
2023-12-23T15:23:44.802Z,99724.75
2023-12-23T15:26:11.970Z,99737.00
2023-12-23T15:28:39.136Z,99745.22
2023-12-23T15:31:06.343Z,99747.88
2023-12-23T15:33:33.553Z,99751.34
2023-12-23T15:36:00.796Z,99751.28
2023-12-23T15:38:27.930Z,99757.41
2023-12-23T15:40:55.199Z,99759.53
2023-12-23T15:43:22.430Z,99767.31
2023-12-23T15:45:49.573Z,99766.44
2023-12-23T15:48:16.762Z,99766.44
2023-12-23T15:50:44.018Z,99776.81
2023-12-23T15:53:11.270Z,99758.94
2023-12-23T15:55:38.624Z,99752.28
2023-12-23T15:58:05.939Z,99760.00
2023-12-23T16:00:33.415Z,99752.28
2023-12-23T16:03:00.807Z,99753.28
2023-12-23T16:05:28.097Z,99756.22
2023-12-23T16:07:55.320Z,99764.19
2023-12-23T16:10:22.401Z,99760.72
2023-12-23T16:12:49.777Z,99761.53
2023-12-23T16:15:17.019Z,99772.47
2023-12-23T16:17:44.431Z,99773.50
2023-12-23T16:20:12.141Z,99767.91
2023-12-23T16:22:39.274Z,99771.38
2023-12-23T16:25:06.741Z,99770.31
2023-12-23T16:27:35.778Z,99768.97
2023-12-23T16:30:03.953Z,99776.19
2023-12-23T16:32:31.288Z,99775.63
2023-12-23T16:34:59.066Z,99759.91
2023-12-23T16:37:26.253Z,99764.44
2023-12-23T16:39:54.164Z,99775.38
2023-12-23T16:42:21.457Z,99772.44
2023-12-23T16:44:48.547Z,99779.38
2023-12-23T16:47:15.732Z,99790.84
2023-12-23T16:49:43.665Z,99798.81
2023-12-23T16:52:10.915Z,99797.22
2023-12-23T16:54:38.080Z,99795.38
2023-12-23T16:57:05.259Z,99798.56
2023-12-23T16:59:32.441Z,99794.03
2023-12-23T17:01:59.617Z,99796.13
2023-12-23T17:04:26.867Z,99804.69
2023-12-23T17:06:54.107Z,99799.91
2023-12-23T17:09:21.198Z,99796.72
2023-12-23T17:11:50.284Z,99803.91
2023-12-23T17:14:17.831Z,99811.63
2023-12-23T17:16:45.324Z,99806.03
2023-12-23T17:19:12.749Z,99804.44
2023-12-23T17:21:39.854Z,99804.97
2023-12-23T17:24:07.209Z,99804.44
2023-12-23T17:26:34.444Z,99797.78
2023-12-23T17:29:01.618Z,99802.56
2023-12-23T17:31:29.178Z,99796.97
2023-12-23T17:33:56.656Z,99804.19
2023-12-23T17:36:23.957Z,99804.66
2023-12-23T17:38:52.854Z,99799.59
2023-12-23T17:41:19.988Z,99804.44
2023-12-23T17:43:47.537Z,99804.44
2023-12-23T17:46:15.143Z,99805.78
2023-12-23T17:48:42.274Z,99812.66
2023-12-23T17:51:09.602Z,99802.84
2023-12-23T17:53:36.734Z,99803.38
2023-12-23T17:56:08.062Z,99806.00
2023-12-23T17:58:35.178Z,99808.09
2023-12-23T18:01:02.288Z,99812.09
2023-12-23T18:03:29.470Z,99808.09
2023-12-23T18:05:56.880Z,99813.41
2023-12-23T18:08:24.102Z,99819.56
2023-12-23T18:10:51.190Z,99821.69
2023-12-23T18:13:21.870Z,99823.28
2023-12-23T18:15:49.242Z,99824.31
2023-12-23T18:18:18.914Z,99838.44
2023-12-23T18:20:46.414Z,99819.81
2023-12-23T18:23:14.372Z,99829.16
2023-12-23T18:25:44.590Z,99832.59
2023-12-23T18:28:11.966Z,99830.19
2023-12-23T18:30:39.108Z,99824.34
2023-12-23T18:33:06.496Z,99829.91
2023-12-23T18:35:33.690Z,99824.63
2023-12-23T18:38:00.870Z,99829.13
2023-12-23T18:40:28.216Z,99831.78
2023-12-23T18:43:00.002Z,99833.66
2023-12-23T18:45:27.184Z,99836.09
2023-12-23T18:47:54.414Z,99835.03
2023-12-23T18:50:21.553Z,99828.63
2023-12-23T18:52:48.929Z,99841.69
2023-12-23T18:55:16.456Z,99837.16
2023-12-23T18:57:43.563Z,99840.09
2023-12-23T19:00:11.201Z,99842.22
2023-12-23T19:02:38.453Z,99846.53
2023-12-23T19:05:06.053Z,99851.38
2023-12-23T19:07:33.266Z,99852.41
2023-12-23T19:10:00.429Z,99849.19
2023-12-23T19:12:27.564Z,99856.69
2023-12-23T19:14:54.731Z,99851.91
2023-12-23T19:17:21.969Z,99859.06
2023-12-23T19:19:49.197Z,99859.09
2023-12-23T19:22:16.912Z,99859.91
2023-12-23T19:24:45.350Z,99854.03
2023-12-23T19:27:12.570Z,99863.16
2023-12-23T19:29:39.738Z,99866.03
2023-12-23T19:32:06.995Z,99862.31
2023-12-23T19:34:37.037Z,99867.09
2023-12-23T19:37:04.355Z,99860.72
2023-12-23T19:39:31.542Z,99872.16
2023-12-23T19:42:00.951Z,99852.19
2023-12-23T19:44:28.935Z,99870.03
2023-12-23T19:46:56.593Z,99871.09
2023-12-23T19:49:23.783Z,99872.44
2023-12-23T19:51:50.866Z,99878.56
2023-12-23T19:54:17.963Z,99882.56
2023-12-23T19:56:45.182Z,99880.72
2023-12-23T19:59:12.838Z,99873.72
2023-12-23T20:01:40.099Z,99869.75
2023-12-23T20:04:07.155Z,99874.00
2023-12-23T20:06:36.413Z,99873.16
2023-12-23T20:09:05.129Z,99867.88
2023-12-23T20:11:32.495Z,99869.19
2023-12-23T20:14:01.013Z,99860.94
2023-12-23T20:16:28.695Z,99857.47
2023-12-23T20:18:56.256Z,99853.19
2023-12-23T20:21:24.417Z,99857.16
2023-12-23T20:23:52.311Z,99850.72
2023-12-23T20:26:23.696Z,99839.56
2023-12-23T20:28:54.216Z,99848.59
2023-12-23T20:31:21.509Z,99842.19
2023-12-23T20:33:48.719Z,99844.31
2023-12-23T20:36:16.169Z,99834.69
2023-12-23T20:38:43.348Z,99836.28
2023-12-23T20:41:10.836Z,99832.84
2023-12-23T20:44:29.143Z,99829.91
2023-12-23T20:46:58.773Z,99830.97
2023-12-23T20:49:27.175Z,99824.03
2023-12-23T20:51:54.666Z,99815.03
2023-12-23T20:54:22.035Z,99826.22
2023-12-23T20:56:49.365Z,99816.88
2023-12-23T20:59:16.935Z,99812.63
2023-12-23T21:01:44.158Z,99822.47
2023-12-23T21:04:11.282Z,99826.22
2023-12-23T21:06:38.475Z,99815.53
2023-12-23T21:09:09.002Z,99809.66
2023-12-23T21:11:39.301Z,99803.28
2023-12-23T21:14:06.622Z,99803.75
2023-12-23T21:16:33.816Z,99809.94
2023-12-23T21:19:01.270Z,99816.84
2023-12-23T21:21:28.530Z,99815.53
2023-12-23T21:24:01.217Z,99798.00
2023-12-23T21:26:28.471Z,99804.34
2023-12-23T21:28:56.441Z,99792.84
2023-12-23T21:31:23.845Z,99793.09
2023-12-23T21:33:51.588Z,99782.97
2023-12-23T21:36:18.909Z,99789.09
2023-12-23T21:38:46.284Z,99791.22
2023-12-23T21:41:13.455Z,99789.91
2023-12-23T21:43:40.592Z,99782.44
2023-12-23T21:46:07.807Z,99769.38
2023-12-23T21:48:34.998Z,99766.41
2023-12-23T21:51:02.229Z,99773.88
2023-12-23T21:53:29.641Z,99771.91
2023-12-23T21:55:56.969Z,99771.63
2023-12-23T21:58:24.136Z,99759.91
2023-12-23T22:00:51.639Z,99757.22
2023-12-23T22:03:18.884Z,99755.09
2023-12-23T22:05:46.339Z,99757.75
2023-12-23T22:08:13.784Z,99757.44
2023-12-23T22:10:41.015Z,99766.28
2023-12-23T22:13:08.204Z,99755.34
2023-12-23T22:15:35.487Z,99753.75
2023-12-23T22:18:02.757Z,99746.53
2023-12-23T22:20:30.080Z,99739.28
2023-12-23T22:22:57.402Z,99740.09
2023-12-23T22:25:25.748Z,99749.66
2023-12-23T22:27:53.017Z,99747.00
2023-12-23T22:30:20.458Z,99746.75
2023-12-23T22:32:47.826Z,99748.34
2023-12-23T22:35:15.504Z,99751.06
2023-12-23T22:37:42.718Z,99752.44
2023-12-23T22:40:11.532Z,99749.47
2023-12-23T22:42:38.767Z,99747.19
2023-12-23T22:45:06.435Z,99751.22
2023-12-23T22:47:33.902Z,99754.13
2023-12-23T22:50:01.231Z,99759.72
2023-12-23T22:52:28.401Z,99753.59
2023-12-23T22:54:55.601Z,99757.88
2023-12-23T22:57:22.700Z,99749.69
2023-12-23T22:59:52.639Z,99754.16
2023-12-23T23:02:21.325Z,99747.31
2023-12-23T23:04:49.088Z,99742.25
2023-12-23T23:07:16.327Z,99735.84
2023-12-23T23:09:43.455Z,99737.16
2023-12-23T23:12:10.557Z,99730.53
2023-12-23T23:14:39.106Z,99734.78
2023-12-23T23:17:06.672Z,99725.19
2023-12-23T23:19:35.035Z,99727.31
2023-12-23T23:22:02.506Z,99739.63
2023-12-23T23:24:30.313Z,99735.66
2023-12-23T23:26:57.948Z,99727.41
2023-12-23T23:29:25.181Z,99732.72
2023-12-23T23:31:53.072Z,99731.38
2023-12-23T23:34:20.336Z,99725.50
2023-12-23T23:36:47.469Z,99718.09
2023-12-23T23:39:14.647Z,99715.94
2023-12-23T23:41:41.879Z,99730.84
2023-12-23T23:44:09.110Z,99695.66
2023-12-23T23:46:36.469Z,99721.81
2023-12-23T23:49:03.696Z,99714.84
2023-12-23T23:51:30.896Z,99704.19
2023-12-23T23:53:58.160Z,99695.22
2023-12-23T23:56:25.605Z,99698.94
2023-12-23T23:58:53.171Z,99692.84
